Darstellungsparameter: Aktuell verwendete Einstellungen:
Skalierung der Graphiken ... ?
xyx+y,   Skalierungsfaktor:      Skalierung: Modus: x, Faktor: 1
Darstellungszeitraum ... ?
Vom - - bis: - -   Zeitraum: 13.10.2010 - 13.10.2010
Min/Max/Avg-Anzeige ... ?
Zeige MMA aktuell
Zeige MMA Monat
Zeige MMA alles
Zeige --A aktuell
Zeige --A Monat
Zeige --A alles
Keine MMA-Anzeige
MMA:
Average (ber die Originaldaten)
MMA-Basis: 13.10.2010 - 13.10.2010
Quicknavigation für Darstellung... ?
Tage:      1T, 2T, 3T, 5T -1T -2T -3T -5T +1T +2T +3T +5T
Wochen: 1W, 2W, 3W -1W -2W -3W +1W +2W +3W
Monate: 1M, 3M, 6M -1M -3M -6M +1M +3M +6M
Jahre:    1J, 3J, 5J, 10J -1J -3J -5J -10J +1J +3J +5J +10J
Nutze für die Darstellung ... ?
Originaldaten oder Mittelwerte auf ...
Stundenbasis Tagesbasis Wochenbasis
Monatsbasis Jahresbasis      Datenbasis: Original-Daten
Darstellen als:
Statistik (Auto) Statistik J:M      Darstellung:
Zur Graphik,    zurück zur Übersicht aller Sensoren.
 
Tabellarische Datenbersicht: ?
 
Sensor: Nr:Datum:Temp:Abs-Feuchte:Windchill:Wind:
Aussen-T/F 1 13-10-2010 00:01:03 7.7 C 5.92 g/m*3 7.7 C 0 km/h
2 13-10-2010 00:13:03 7.7 C 5.92 g/m*3 7.7 C 0 km/h
3 13-10-2010 00:25:03 7.9 C 5.91 g/m*3 7.9 C 0 km/h
4 13-10-2010 00:37:03 7.4 C 5.81 g/m*3 7.4 C 0 km/h
5 13-10-2010 00:49:03 7.3 C 5.77 g/m*3 7.3 C 0 km/h
6 13-10-2010 01:01:03 7.3 C 5.85 g/m*3 7.3 C 0 km/h
7 13-10-2010 01:13:03 7.3 C 5.85 g/m*3 7.3 C 0 km/h
8 13-10-2010 01:25:04 7 C 5.73 g/m*3 7 C 0 km/h
9 13-10-2010 01:37:04 6.8 C 5.81 g/m*3 6.8 C 0 km/h
10 13-10-2010 01:49:04 6.7 C 5.85 g/m*3 6.7 C 0 km/h
11 13-10-2010 02:01:04 6.9 C 5.93 g/m*3 6.9 C 0 km/h
12 13-10-2010 02:13:04 6.9 C 5.85 g/m*3 6.9 C 0 km/h
13 13-10-2010 02:25:04 6.8 C 5.81 g/m*3 6.8 C 0 km/h
14 13-10-2010 02:37:04 6.9 C 5.85 g/m*3 6.9 C 0 km/h
15 13-10-2010 02:49:04 6.5 C 5.7 g/m*3 6.5 C 0 km/h
16 13-10-2010 03:01:04 6.4 C 5.74 g/m*3 6.4 C 0 km/h
17 13-10-2010 03:13:04 6.4 C 5.74 g/m*3 6.4 C 0 km/h
18 13-10-2010 03:25:04 6.5 C 5.7 g/m*3 6.5 C 0 km/h
19 13-10-2010 03:37:04 6.5 C 5.7 g/m*3 6.5 C 0 km/h
20 13-10-2010 03:49:04 6.4 C 5.59 g/m*3 6.4 C 0 km/h
21 13-10-2010 04:01:04 6.2 C 5.52 g/m*3 6.2 C 0 km/h
22 13-10-2010 04:13:04 6.1 C 5.55 g/m*3 6.1 C 0 km/h
23 13-10-2010 04:25:04 6.2 C 5.66 g/m*3 6.2 C 0 km/h
24 13-10-2010 04:37:04 6.2 C 5.59 g/m*3 6.2 C 0 km/h
25 13-10-2010 04:49:04 6.3 C 5.63 g/m*3 6.3 C 0 km/h
Sensor: Nr:Datum:Temp:Abs-Feuchte:Windchill:Wind:
Aussen-T/F 26 13-10-2010 05:01:04 6.3 C 5.63 g/m*3 6.3 C 0 km/h
27 13-10-2010 05:13:04 6.2 C 5.59 g/m*3 6.2 C 0 km/h
28 13-10-2010 05:25:04 6.1 C 5.55 g/m*3 6.1 C 0 km/h
29 13-10-2010 05:37:05 6 C 5.59 g/m*3 6 C 0 km/h
30 13-10-2010 05:49:05 5.9 C 5.62 g/m*3 5.9 C 0 km/h
31 13-10-2010 06:01:05 6 C 5.66 g/m*3 6 C 0 km/h
32 13-10-2010 06:13:05 6 C 5.59 g/m*3 6 C 0 km/h
33 13-10-2010 06:25:05 5.8 C 5.59 g/m*3 5.8 C 0 km/h
34 13-10-2010 06:37:05 5.8 C 5.59 g/m*3 5.8 C 0 km/h
35 13-10-2010 06:49:02 5.6 C 5.59 g/m*3 5.6 C 0 km/h
36 13-10-2010 07:01:02 5.5 C 5.55 g/m*3 5.5 C 0 km/h
37 13-10-2010 07:13:02 5.4 C 5.51 g/m*3 5.4 C 0 km/h
38 13-10-2010 07:25:02 5.2 C 5.44 g/m*3 5.2 C 0 km/h
39 13-10-2010 07:37:02 5.4 C 5.58 g/m*3 5.4 C 0 km/h
40 13-10-2010 07:49:01 5.6 C 5.59 g/m*3 5.6 C 0 km/h
41 13-10-2010 08:01:02 5.7 C 5.55 g/m*3 5.7 C 0 km/h
42 13-10-2010 08:13:02 5.6 C 5.51 g/m*3 5.6 C 0 km/h
43 13-10-2010 08:25:02 5.6 C 5.51 g/m*3 5.6 C 0 km/h
44 13-10-2010 08:37:01 5.6 C 5.44 g/m*3 5.6 C 0 km/h
45 13-10-2010 08:49:02 5.6 C 5.44 g/m*3 5.6 C 0 km/h
46 13-10-2010 09:01:02 5.7 C 5.48 g/m*3 5.7 C 0 km/h
47 13-10-2010 09:13:02 5.7 C 5.48 g/m*3 5.7 C 0 km/h
48 13-10-2010 09:25:02 5.8 C 5.44 g/m*3 5.8 C 0 km/h
49 13-10-2010 09:37:03 6 C 5.44 g/m*3 6 C 0 km/h
50 13-10-2010 09:49:02 6.1 C 5.41 g/m*3 6.1 C 0 km/h
Sensor: Nr:Datum:Temp:Abs-Feuchte:Windchill:Wind:
Aussen-T/F 51 13-10-2010 10:01:02 6.4 C 5.44 g/m*3 6.4 C 0 km/h
52 13-10-2010 10:13:02 6.6 C 5.36 g/m*3 6.6 C 0 km/h
53 13-10-2010 10:25:01 6.7 C 5.32 g/m*3 6.7 C 0 km/h
54 13-10-2010 10:37:02 6.8 C 5.2 g/m*3 6.8 C 0 km/h
55 13-10-2010 10:49:02 6.8 C 5.2 g/m*3 6.8 C 0 km/h
56 13-10-2010 11:01:02 7 C 5.11 g/m*3 7 C 0 km/h
57 13-10-2010 11:13:02 7 C 5.04 g/m*3 7 C 0 km/h
58 13-10-2010 11:25:02 6.8 C 5.05 g/m*3 6.8 C 0 km/h
59 13-10-2010 11:37:02 7.1 C 5.15 g/m*3 7.1 C 0 km/h
60 13-10-2010 11:49:02 7.3 C 5.06 g/m*3 7.3 C 0 km/h
61 13-10-2010 12:01:02 7.7 C 5.11 g/m*3 7.7 C 0 km/h
62 13-10-2010 12:13:02 7.9 C 5.01 g/m*3 7.9 C 0 km/h
63 13-10-2010 12:25:02 8 C 5.04 g/m*3 8 C 0 km/h
64 13-10-2010 12:37:02 8.4 C 5.01 g/m*3 8.4 C 0 km/h
65 13-10-2010 12:49:02 8.7 C 5.1 g/m*3 8.7 C 0 km/h
66 13-10-2010 13:01:02 9 C 4.94 g/m*3 9 C 0 km/h
67 13-10-2010 13:13:02 8.8 C 4.87 g/m*3 8.8 C 0 km/h
68 13-10-2010 13:25:02 9 C 4.94 g/m*3 9 C 0 km/h
69 13-10-2010 13:37:02 8.5 C 4.87 g/m*3 8.5 C 0 km/h
70 13-10-2010 13:49:02 8.7 C 4.84 g/m*3 8.7 C 0 km/h
71 13-10-2010 14:01:02 9.6 C 5.13 g/m*3 9.6 C 0 km/h
72 13-10-2010 14:13:02 9.4 C 4.79 g/m*3 9.4 C 0 km/h
73 13-10-2010 14:25:02 9.6 C 4.86 g/m*3 9.6 C 0 km/h
74 13-10-2010 14:37:01 9.7 C 4.98 g/m*3 9.7 C 0 km/h
75 13-10-2010 14:49:02 10.7 C 5.01 g/m*3 10.7 C 0 km/h
Sensor: Nr:Datum:Temp:Abs-Feuchte:Windchill:Wind:
Aussen-T/F 76 13-10-2010 15:01:01 11.3 C 5 g/m*3 11.3 C 0 km/h
77 13-10-2010 15:13:01 11.2 C 4.87 g/m*3 11.2 C 0 km/h
78 13-10-2010 15:25:01 11.9 C 5.08 g/m*3 11.9 C 0 km/h
79 13-10-2010 15:37:02 12 C 4.8 g/m*3 12 C 0 km/h
80 13-10-2010 15:49:02 12.5 C 4.95 g/m*3 12.5 C 0 km/h
81 13-10-2010 16:01:02 12.1 C 4.93 g/m*3 12.1 C 0 km/h
82 13-10-2010 16:13:02 11.9 C 4.98 g/m*3 11.9 C 0 km/h
83 13-10-2010 16:25:01 12.1 C 4.93 g/m*3 12.1 C 0 km/h
84 13-10-2010 16:37:02 11.8 C 5.05 g/m*3 11.8 C 0 km/h
85 13-10-2010 16:49:02 12.4 C 5.14 g/m*3 12.4 C 0 km/h
86 13-10-2010 17:01:02 12.3 C 4.99 g/m*3 12.3 C 0 km/h
87 13-10-2010 17:13:02 12.2 C 5.07 g/m*3 12.2 C 0 km/h
88 13-10-2010 17:25:01 12.5 C 5.39 g/m*3 12.5 C 0 km/h
89 13-10-2010 17:37:02 12.5 C 5.28 g/m*3 12.5 C 0 km/h
90 13-10-2010 17:49:01 12.2 C 5.4 g/m*3 12.2 C 0 km/h
91 13-10-2010 18:01:02 11.6 C 5.4 g/m*3 11.6 C 0 km/h
92 13-10-2010 18:13:02 10.9 C 5.47 g/m*3 10.9 C 0 km/h
93 13-10-2010 18:25:02 9.8 C 5.47 g/m*3 9.8 C 0 km/h
94 13-10-2010 18:37:02 9 C 5.47 g/m*3 9 C 0 km/h
95 13-10-2010 18:49:02 8.4 C 5.6 g/m*3 8.4 C 0 km/h
96 13-10-2010 19:01:01 7.9 C 5.67 g/m*3 7.9 C 0 km/h
97 13-10-2010 19:13:01 7.6 C 5.72 g/m*3 7.6 C 0 km/h
98 13-10-2010 19:25:02 7.4 C 5.73 g/m*3 7.4 C 0 km/h
99 13-10-2010 19:37:01 7.3 C 5.85 g/m*3 7.3 C 0 km/h
100 13-10-2010 19:49:02 7.2 C 5.81 g/m*3 7.2 C 0 km/h
Sensor: Nr:Datum:Temp:Abs-Feuchte:Windchill:Wind:
Aussen-T/F 101 13-10-2010 20:01:02 7.3 C 5.85 g/m*3 7.3 C 0 km/h
102 13-10-2010 20:13:02 7 C 5.73 g/m*3 7 C 0 km/h
103 13-10-2010 20:25:02 7 C 5.81 g/m*3 7 C 0 km/h
104 13-10-2010 20:37:03 6.9 C 5.85 g/m*3 6.9 C 0 km/h
105 13-10-2010 20:49:02 6.6 C 5.81 g/m*3 6.6 C 0 km/h
106 13-10-2010 21:01:02 6.3 C 5.77 g/m*3 6.3 C 0 km/h
107 13-10-2010 21:13:02 6 C 5.73 g/m*3 6 C 0 km/h
108 13-10-2010 21:25:01 5.8 C 5.73 g/m*3 5.8 C 0 km/h
109 13-10-2010 21:37:02 5.6 C 5.73 g/m*3 5.6 C 0 km/h
110 13-10-2010 21:49:02 5.4 C 5.65 g/m*3 5.4 C 0 km/h
111 13-10-2010 22:02:03 5.4 C 5.72 g/m*3 5.4 C 0 km/h
112 13-10-2010 22:14:03 5.3 C 5.75 g/m*3 5.3 C 0 km/h
113 13-10-2010 22:26:03 5.2 C 5.71 g/m*3 5.2 C 0 km/h
114 13-10-2010 22:38:03 5.1 C 5.75 g/m*3 5.1 C 0 km/h
115 13-10-2010 22:50:03 4.8 C 5.7 g/m*3 4.8 C 0 km/h
116 13-10-2010 23:02:03 4.7 C 5.66 g/m*3 4.7 C 0 km/h
117 13-10-2010 23:14:03 4.6 C 5.62 g/m*3 4.6 C 0 km/h
118 13-10-2010 23:26:03 4.6 C 5.62 g/m*3 4.6 C 0 km/h
119 13-10-2010 23:38:03 4.5 C 5.59 g/m*3 4.5 C 0 km/h
120 13-10-2010 23:50:03 4.2 C 5.54 g/m*3 4.2 C 0 km/h

Legende:
   Min
   Max


Maximal/Minimal-Werte vom 13.10.2010 - 13.10.2010

Sensor Min Max Avg
Temp
(Aussen-T/F)
4.2 °C
13-10-2010  23:50:03
12.5 °C
13-10-2010  15:49:02
7.48 °C
Abs-Feuchte
(Aussen-T/F)
4.79 g/m*3
13-10-2010  14:13:02
5.93 g/m*3
13-10-2010  02:01:04
5.41 g/m*3
Windchill
(Aussen-T/F)
4.2 C
13-10-2010  23:50:03
12.5 C
13-10-2010  15:49:02
7.41 C

Die Daten stammen von einer Davis Vantage Pro 2 Wetter-Station und werden unter Linux mit der Software wview2wettercgi und aufbereitet. Alle Angaben erfolgen ohne Gewähr für ihre Vollständigkeit oder Richtigkeit.
Kontakt: Rainer Krienke krienke@uni-koblenz.de . Meine Webseiten an der Uni Koblenz oder privat.
Version: $Revision: 0.78 $